DAL1536 KSTL-KATL
Flight info
| Callsign | DAL1536 |
|---|---|
| Flight time | 1h 4m |
| Altitude | 35000 |
| Route | DRUSE5 BNA NEWBB IHAVE MTHEW CHPPR1 |
| Aircraft | B739/M-SDE2E3FGHIRWXY/LB1 |
Departure
| Time | 2026-05-01 12:45 |
|---|---|
| Airport | St. Louis Lambert International Airport (KSTL) |
Arrival
| Time | 2026-05-01 13:50 |
|---|---|
| Airport | Hartsfield Jackson Atlanta International Airport (KATL) |
| Time | Latitude | Longitude | Altitude | Speed | Heading |
|---|---|---|---|---|---|
| 2026-05-01 12:35 | 38.74513 | -90.36710 | 615 ft | 0 kts | 252° |
| 2026-05-01 12:35 | 38.74513 | -90.36709 | 615 ft | 1 kts | 253° |
| 2026-05-01 12:35 | 38.74517 | -90.36691 | 615 ft | 2 kts | 252° |
| 2026-05-01 12:36 | 38.74520 | -90.36678 | 615 ft | 0 kts | 252° |
| 2026-05-01 12:36 | 38.74527 | -90.36662 | 615 ft | 2 kts | 220° |
| 2026-05-01 12:36 | 38.74540 | -90.36654 | 615 ft | 2 kts | 188° |
| 2026-05-01 12:36 | 38.74556 | -90.36656 | 615 ft | 2 kts | 155° |
| 2026-05-01 12:37 | 38.74566 | -90.36666 | 615 ft | 0 kts | 126° |
| 2026-05-01 12:37 | 38.74569 | -90.36673 | 615 ft | 1 kts | 120° |
| 2026-05-01 12:37 | 38.74570 | -90.36675 | 615 ft | 0 kts | 121° |
| 2026-05-01 12:39 | 38.74566 | -90.36666 | 615 ft | 3 kts | 121° |
| 2026-05-01 12:39 | 38.74546 | -90.36625 | 615 ft | 7 kts | 122° |
| 2026-05-01 12:39 | 38.74527 | -90.36560 | 615 ft | 8 kts | 85° |
| 2026-05-01 12:39 | 38.74530 | -90.36462 | 615 ft | 14 kts | 112° |
| 2026-05-01 12:40 | 38.74468 | -90.36328 | 615 ft | 20 kts | 122° |
| 2026-05-01 12:40 | 38.74385 | -90.36157 | 615 ft | 25 kts | 122° |
| 2026-05-01 12:40 | 38.74282 | -90.35946 | 615 ft | 30 kts | 122° |
| 2026-05-01 12:40 | 38.74166 | -90.35716 | 615 ft | 29 kts | 122° |
| 2026-05-01 12:41 | 38.74061 | -90.35502 | 615 ft | 27 kts | 122° |
| 2026-05-01 12:41 | 38.73960 | -90.35299 | 615 ft | 26 kts | 122° |
| 2026-05-01 12:41 | 38.73863 | -90.35100 | 615 ft | 26 kts | 123° |
| 2026-05-01 12:41 | 38.73769 | -90.34911 | 615 ft | 24 kts | 121° |
| 2026-05-01 12:42 | 38.73731 | -90.34833 | 615 ft | 0 kts | 123° |
| 2026-05-01 12:42 | 38.73731 | -90.34832 | 615 ft | 0 kts | 123° |
| 2026-05-01 12:43 | 38.73724 | -90.34817 | 615 ft | 4 kts | 121° |
| 2026-05-01 12:43 | 38.73706 | -90.34770 | 615 ft | 7 kts | 97° |
| 2026-05-01 12:43 | 38.73740 | -90.34705 | 615 ft | 11 kts | 33° |
| 2026-05-01 12:43 | 38.73816 | -90.34727 | 615 ft | 15 kts | 307° |
| 2026-05-01 12:44 | 38.73951 | -90.34999 | 615 ft | 66 kts | 302° |
| 2026-05-01 12:44 | 38.74304 | -90.35719 | 615 ft | 123 kts | 302° |
| 2026-05-01 12:44 | 38.75397 | -90.38021 | 799 ft | 160 kts | 296° |
| 2026-05-01 12:45 | 38.75938 | -90.40273 | 1081 ft | 182 kts | 294° |
| 2026-05-01 12:45 | 38.76734 | -90.41549 | 1612 ft | 191 kts | 320° |
| 2026-05-01 12:45 | 38.77755 | -90.42699 | 2165 ft | 201 kts | 314° |
| 2026-05-01 12:46 | 38.78368 | -90.44370 | 2506 ft | 222 kts | 281° |
| 2026-05-01 12:46 | 38.78102 | -90.46394 | 2934 ft | 242 kts | 249° |
| 2026-05-01 12:46 | 38.77184 | -90.48248 | 3370 ft | 258 kts | 239° |
| 2026-05-01 12:46 | 38.76097 | -90.50159 | 3841 ft | 269 kts | 237° |
| 2026-05-01 12:47 | 38.74803 | -90.51893 | 4476 ft | 277 kts | 222° |
| 2026-05-01 12:47 | 38.73081 | -90.53065 | 5093 ft | 285 kts | 205° |
| 2026-05-01 12:47 | 38.71203 | -90.53846 | 5735 ft | 289 kts | 197° |
| 2026-05-01 12:47 | 38.69188 | -90.54017 | 6324 ft | 295 kts | 174° |
| 2026-05-01 12:48 | 38.67192 | -90.53262 | 6882 ft | 300 kts | 154° |
| 2026-05-01 12:48 | 38.65398 | -90.51882 | 7488 ft | 302 kts | 145° |
| 2026-05-01 12:48 | 38.63691 | -90.50347 | 8027 ft | 307 kts | 144° |
| 2026-05-01 12:48 | 38.61969 | -90.48759 | 8612 ft | 309 kts | 144° |
| 2026-05-01 12:49 | 38.60206 | -90.47150 | 9143 ft | 313 kts | 145° |
| 2026-05-01 12:49 | 38.58407 | -90.45529 | 9691 ft | 317 kts | 146° |
| 2026-05-01 12:49 | 38.56584 | -90.43902 | 10220 ft | 322 kts | 147° |
| 2026-05-01 12:49 | 38.54764 | -90.42145 | 10445 ft | 337 kts | 138° |
| 2026-05-01 12:50 | 38.53262 | -90.39817 | 10657 ft | 351 kts | 118° |
| 2026-05-01 12:50 | 38.52230 | -90.36886 | 10821 ft | 367 kts | 110° |
| 2026-05-01 12:50 | 38.51354 | -90.33800 | 11035 ft | 381 kts | 108° |
| 2026-05-01 12:50 | 38.50471 | -90.30553 | 11211 ft | 396 kts | 108° |
| 2026-05-01 12:51 | 38.49543 | -90.27196 | 11599 ft | 404 kts | 109° |
| 2026-05-01 12:51 | 38.48576 | -90.23789 | 12117 ft | 409 kts | 109° |
| 2026-05-01 12:51 | 38.46590 | -90.16956 | 13146 ft | 418 kts | 110° |
| 2026-05-01 12:52 | 38.45570 | -90.13480 | 13610 ft | 424 kts | 111° |
| 2026-05-01 12:52 | 38.43470 | -90.06334 | 14680 ft | 434 kts | 110° |
| 2026-05-01 12:52 | 38.42414 | -90.02756 | 15210 ft | 438 kts | 111° |
| 2026-05-01 12:53 | 38.40247 | -89.95432 | 16270 ft | 446 kts | 111° |
| 2026-05-01 12:53 | 38.39158 | -89.91747 | 16805 ft | 449 kts | 111° |
| 2026-05-01 12:53 | 38.38057 | -89.88023 | 17378 ft | 452 kts | 111° |
| 2026-05-01 12:54 | 38.36944 | -89.84267 | 17873 ft | 456 kts | 111° |
| 2026-05-01 12:54 | 38.34690 | -89.76714 | 18855 ft | 463 kts | 112° |
| 2026-05-01 12:54 | 38.33459 | -89.72881 | 19251 ft | 468 kts | 115° |
| 2026-05-01 12:55 | 38.30039 | -89.65833 | 20129 ft | 473 kts | 131° |
| 2026-05-01 12:55 | 38.27905 | -89.62618 | 20512 ft | 477 kts | 135° |
| 2026-05-01 12:55 | 38.25679 | -89.59508 | 20986 ft | 478 kts | 137° |
| 2026-05-01 12:56 | 38.23389 | -89.56387 | 21373 ft | 483 kts | 137° |
| 2026-05-01 12:56 | 38.21096 | -89.53268 | 21747 ft | 488 kts | 137° |
| 2026-05-01 12:56 | 38.18796 | -89.50114 | 22148 ft | 492 kts | 137° |
| 2026-05-01 12:56 | 38.16472 | -89.46899 | 22544 ft | 495 kts | 137° |
| 2026-05-01 12:57 | 38.14156 | -89.43668 | 22832 ft | 501 kts | 136° |
| 2026-05-01 12:57 | 38.09479 | -89.37062 | 23625 ft | 508 kts | 136° |
| 2026-05-01 12:57 | 38.07085 | -89.33660 | 23820 ft | 516 kts | 137° |
| 2026-05-01 12:58 | 38.04724 | -89.30292 | 24315 ft | 515 kts | 137° |
| 2026-05-01 12:58 | 38.02326 | -89.26872 | 24577 ft | 520 kts | 138° |
| 2026-05-01 12:58 | 37.99938 | -89.23464 | 24958 ft | 522 kts | 139° |
| 2026-05-01 12:59 | 37.95122 | -89.16600 | 25731 ft | 525 kts | 139° |
| 2026-05-01 12:59 | 37.92667 | -89.13117 | 25916 ft | 531 kts | 139° |
| 2026-05-01 12:59 | 37.87730 | -89.06124 | 26553 ft | 536 kts | 139° |
| 2026-05-01 13:00 | 37.82750 | -88.99070 | 27248 ft | 539 kts | 140° |
| 2026-05-01 13:00 | 37.80233 | -88.95518 | 27451 ft | 545 kts | 140° |
| 2026-05-01 13:01 | 37.75191 | -88.88406 | 28283 ft | 543 kts | 141° |
| 2026-05-01 13:01 | 37.72707 | -88.84900 | 28736 ft | 541 kts | 141° |
| 2026-05-01 13:01 | 37.67685 | -88.77838 | 29354 ft | 544 kts | 142° |
| 2026-05-01 13:02 | 37.65165 | -88.74309 | 29793 ft | 541 kts | 143° |
| 2026-05-01 13:07 | 37.12874 | -88.01885 | 35066 ft | 528 kts | 145° |
| 2026-05-01 13:07 | 37.10380 | -87.98480 | 35065 ft | 527 kts | 145° |
| 2026-05-01 13:08 | 37.05454 | -87.91755 | 35061 ft | 530 kts | 145° |
| 2026-05-01 13:08 | 37.00486 | -87.84967 | 35062 ft | 527 kts | 144° |
| 2026-05-01 13:09 | 36.95532 | -87.78209 | 35061 ft | 528 kts | 144° |
| 2026-05-01 13:09 | 36.90561 | -87.71444 | 35060 ft | 529 kts | 144° |
| 2026-05-01 13:10 | 36.85558 | -87.64647 | 35058 ft | 527 kts | 145° |
| 2026-05-01 13:10 | 36.80599 | -87.57935 | 35056 ft | 528 kts | 145° |
| 2026-05-01 13:11 | 36.75610 | -87.51208 | 35053 ft | 529 kts | 144° |
| 2026-05-01 13:11 | 36.70646 | -87.44531 | 35052 ft | 529 kts | 145° |
| 2026-05-01 13:12 | 36.65650 | -87.37799 | 35053 ft | 531 kts | 145° |
| 2026-05-01 13:12 | 36.60665 | -87.31092 | 35050 ft | 529 kts | 146° |
| 2026-05-01 13:13 | 36.55684 | -87.24419 | 35046 ft | 528 kts | 146° |
| 2026-05-01 13:13 | 36.50720 | -87.17773 | 35044 ft | 525 kts | 145° |
| 2026-05-01 13:14 | 36.45739 | -87.11137 | 35047 ft | 528 kts | 146° |
| 2026-05-01 13:14 | 36.40747 | -87.04507 | 35044 ft | 530 kts | 146° |
| 2026-05-01 13:15 | 36.35704 | -86.97819 | 35034 ft | 532 kts | 146° |
| 2026-05-01 13:15 | 36.30710 | -86.91175 | 35033 ft | 528 kts | 145° |
| 2026-05-01 13:16 | 36.25689 | -86.84535 | 35030 ft | 529 kts | 146° |
| 2026-05-01 13:16 | 36.20627 | -86.77864 | 35030 ft | 529 kts | 146° |
| 2026-05-01 13:17 | 36.12926 | -86.68338 | 35031 ft | 512 kts | 156° |
| 2026-05-01 13:17 | 36.10073 | -86.65791 | 35035 ft | 501 kts | 162° |
| 2026-05-01 13:18 | 36.01188 | -86.59431 | 35032 ft | 491 kts | 167° |
| 2026-05-01 13:18 | 35.95187 | -86.55402 | 35032 ft | 489 kts | 167° |
| 2026-05-01 13:19 | 35.89228 | -86.51347 | 35031 ft | 493 kts | 166° |
| 2026-05-01 13:20 | 35.80393 | -86.45214 | 35029 ft | 486 kts | 166° |
| 2026-05-01 13:20 | 35.74479 | -86.41102 | 35022 ft | 488 kts | 165° |
| 2026-05-01 13:21 | 35.65593 | -86.34870 | 35018 ft | 492 kts | 165° |
| 2026-05-01 13:21 | 35.59708 | -86.30661 | 35020 ft | 488 kts | 165° |
| 2026-05-01 13:22 | 35.53822 | -86.26460 | 35023 ft | 489 kts | 166° |
| 2026-05-01 13:22 | 35.47946 | -86.22307 | 35026 ft | 490 kts | 166° |
| 2026-05-01 13:23 | 35.42068 | -86.17961 | 35025 ft | 500 kts | 161° |
| 2026-05-01 13:23 | 35.36471 | -86.12869 | 35027 ft | 508 kts | 156° |
| 2026-05-01 13:24 | 35.30930 | -86.07398 | 35027 ft | 514 kts | 154° |
| 2026-05-01 13:25 | 35.22667 | -85.99205 | 35011 ft | 501 kts | 155° |
| 2026-05-01 13:25 | 35.19989 | -85.96571 | 34733 ft | 491 kts | 155° |
| 2026-05-01 13:25 | 35.17334 | -85.93990 | 34287 ft | 485 kts | 156° |
| 2026-05-01 13:25 | 35.14711 | -85.91464 | 33779 ft | 481 kts | 156° |
| 2026-05-01 13:26 | 35.12062 | -85.88930 | 33276 ft | 477 kts | 156° |
| 2026-05-01 13:26 | 35.09454 | -85.86449 | 32783 ft | 474 kts | 156° |
| 2026-05-01 13:26 | 35.06871 | -85.84006 | 32276 ft | 472 kts | 156° |
| 2026-05-01 13:26 | 35.04293 | -85.81575 | 31766 ft | 469 kts | 155° |
| 2026-05-01 13:27 | 35.01707 | -85.79131 | 31254 ft | 468 kts | 155° |
| 2026-05-01 13:27 | 34.99175 | -85.76734 | 30748 ft | 466 kts | 155° |
| 2026-05-01 13:27 | 34.94066 | -85.71889 | 29724 ft | 462 kts | 154° |
| 2026-05-01 13:28 | 34.89034 | -85.67104 | 28711 ft | 458 kts | 154° |
| 2026-05-01 13:28 | 34.86519 | -85.64722 | 28189 ft | 456 kts | 153° |
| 2026-05-01 13:29 | 34.81548 | -85.60021 | 27171 ft | 452 kts | 153° |
| 2026-05-01 13:29 | 34.76603 | -85.55351 | 26164 ft | 448 kts | 153° |
| 2026-05-01 13:30 | 34.66857 | -85.46139 | 24149 ft | 440 kts | 152° |
| 2026-05-01 13:31 | 34.62087 | -85.41619 | 23179 ft | 429 kts | 152° |
| 2026-05-01 13:31 | 34.55173 | -85.35112 | 21746 ft | 415 kts | 151° |
| 2026-05-01 13:32 | 34.50669 | -85.30872 | 20803 ft | 405 kts | 151° |
| 2026-05-01 13:33 | 34.44131 | -85.24735 | 19399 ft | 390 kts | 150° |
| 2026-05-01 13:33 | 34.39904 | -85.20765 | 18510 ft | 380 kts | 150° |
| 2026-05-01 13:34 | 34.35789 | -85.16903 | 17611 ft | 371 kts | 150° |
| 2026-05-01 13:34 | 34.31743 | -85.13125 | 16731 ft | 361 kts | 149° |
| 2026-05-01 13:35 | 34.27845 | -85.09489 | 15904 ft | 351 kts | 148° |
| 2026-05-01 13:35 | 34.25914 | -85.07674 | 15480 ft | 347 kts | 147° |
| 2026-05-01 13:35 | 34.22190 | -85.04137 | 14668 ft | 337 kts | 147° |
| 2026-05-01 13:36 | 34.20354 | -85.02416 | 14267 ft | 331 kts | 147° |
| 2026-05-01 13:36 | 34.18544 | -85.00729 | 13878 ft | 326 kts | 147° |
| 2026-05-01 13:36 | 34.15013 | -84.97456 | 13104 ft | 316 kts | 146° |
| 2026-05-01 13:37 | 34.13290 | -84.95852 | 12994 ft | 309 kts | 146° |
| 2026-05-01 13:37 | 34.11579 | -84.94238 | 12987 ft | 314 kts | 146° |
| 2026-05-01 13:37 | 34.09864 | -84.92612 | 12736 ft | 314 kts | 146° |
| 2026-05-01 13:37 | 34.08163 | -84.90990 | 12377 ft | 310 kts | 146° |
| 2026-05-01 13:38 | 34.04784 | -84.87788 | 11625 ft | 308 kts | 145° |
| 2026-05-01 13:38 | 34.03096 | -84.86194 | 11246 ft | 307 kts | 146° |
| 2026-05-01 13:38 | 34.01332 | -84.84776 | 10876 ft | 303 kts | 156° |
| 2026-05-01 13:39 | 33.99377 | -84.84016 | 10511 ft | 294 kts | 175° |
| 2026-05-01 13:39 | 33.97340 | -84.83806 | 10134 ft | 291 kts | 181° |
| 2026-05-01 13:39 | 33.95329 | -84.83713 | 9873 ft | 285 kts | 182° |
| 2026-05-01 13:39 | 33.93381 | -84.83594 | 9618 ft | 281 kts | 180° |
| 2026-05-01 13:40 | 33.91424 | -84.83430 | 9220 ft | 283 kts | 179° |
| 2026-05-01 13:40 | 33.89449 | -84.83233 | 8985 ft | 278 kts | 179° |
| 2026-05-01 13:40 | 33.87509 | -84.83020 | 8988 ft | 280 kts | 178° |
| 2026-05-01 13:40 | 33.85565 | -84.82798 | 8979 ft | 278 kts | 178° |
| 2026-05-01 13:41 | 33.83661 | -84.82577 | 8677 ft | 277 kts | 178° |
| 2026-05-01 13:41 | 33.81728 | -84.82361 | 8259 ft | 278 kts | 178° |
| 2026-05-01 13:41 | 33.79816 | -84.82149 | 7929 ft | 277 kts | 177° |
| 2026-05-01 13:41 | 33.77884 | -84.81931 | 7576 ft | 276 kts | 177° |
| 2026-05-01 13:42 | 33.75978 | -84.81717 | 7309 ft | 272 kts | 176° |
| 2026-05-01 13:42 | 33.74173 | -84.81513 | 7317 ft | 255 kts | 177° |
| 2026-05-01 13:42 | 33.72440 | -84.81311 | 7267 ft | 242 kts | 177° |
| 2026-05-01 13:42 | 33.70786 | -84.81118 | 6984 ft | 240 kts | 177° |
| 2026-05-01 13:43 | 33.69123 | -84.80934 | 6656 ft | 240 kts | 178° |
| 2026-05-01 13:43 | 33.67461 | -84.80756 | 6362 ft | 238 kts | 175° |
| 2026-05-01 13:43 | 33.65916 | -84.80105 | 6023 ft | 240 kts | 142° |
| 2026-05-01 13:43 | 33.64988 | -84.78494 | 5723 ft | 236 kts | 104° |
| 2026-05-01 13:44 | 33.64823 | -84.76561 | 5404 ft | 232 kts | 87° |
| 2026-05-01 13:44 | 33.64878 | -84.74647 | 5116 ft | 229 kts | 86° |
| 2026-05-01 13:44 | 33.64913 | -84.72767 | 4983 ft | 225 kts | 88° |
| 2026-05-01 13:44 | 33.64912 | -84.70868 | 4992 ft | 228 kts | 88° |
| 2026-05-01 13:45 | 33.64910 | -84.68961 | 4978 ft | 229 kts | 88° |
| 2026-05-01 13:45 | 33.64919 | -84.67055 | 4896 ft | 232 kts | 88° |
| 2026-05-01 13:45 | 33.64925 | -84.65118 | 4560 ft | 231 kts | 88° |
| 2026-05-01 13:45 | 33.64927 | -84.63212 | 4236 ft | 228 kts | 88° |
| 2026-05-01 13:46 | 33.64929 | -84.61349 | 3921 ft | 222 kts | 88° |
| 2026-05-01 13:46 | 33.64931 | -84.59557 | 3630 ft | 206 kts | 87° |
| 2026-05-01 13:46 | 33.64934 | -84.57899 | 3347 ft | 191 kts | 88° |
| 2026-05-01 13:46 | 33.64938 | -84.56373 | 3102 ft | 177 kts | 88° |
| 2026-05-01 13:47 | 33.64941 | -84.54953 | 2849 ft | 166 kts | 88° |
| 2026-05-01 13:47 | 33.64946 | -84.53606 | 2673 ft | 157 kts | 88° |
| 2026-05-01 13:47 | 33.64949 | -84.52299 | 2430 ft | 156 kts | 89° |
| 2026-05-01 13:47 | 33.64944 | -84.50990 | 2219 ft | 158 kts | 89° |
| 2026-05-01 13:48 | 33.64945 | -84.49657 | 2001 ft | 160 kts | 89° |
| 2026-05-01 13:48 | 33.64949 | -84.48323 | 1787 ft | 160 kts | 90° |
| 2026-05-01 13:48 | 33.64949 | -84.46992 | 1571 ft | 161 kts | 89° |
| 2026-05-01 13:48 | 33.64953 | -84.45657 | 1360 ft | 160 kts | 89° |
| 2026-05-01 13:49 | 33.64956 | -84.44338 | 1157 ft | 160 kts | 89° |
| 2026-05-01 13:49 | 33.64955 | -84.43009 | 1024 ft | 151 kts | 90° |
| 2026-05-01 13:49 | 33.64954 | -84.42011 | 1012 ft | 85 kts | 90° |
| 2026-05-01 13:49 | 33.64951 | -84.41456 | 1013 ft | 60 kts | 89° |
| 2026-05-01 13:50 | 33.64957 | -84.41071 | 1022 ft | 29 kts | 90° |
| 2026-05-01 13:50 | 33.64906 | -84.40968 | 1024 ft | 12 kts | 172° |
| 2026-05-01 13:50 | 33.64847 | -84.41003 | 1023 ft | 12 kts | 263° |
| 2026-05-01 13:50 | 33.64848 | -84.41149 | 1020 ft | 22 kts | 259° |
| 2026-05-01 13:51 | 33.64790 | -84.41328 | 1016 ft | 22 kts | 265° |
| 2026-05-01 13:51 | 33.64789 | -84.41513 | 1012 ft | 21 kts | 269° |
| 2026-05-01 13:51 | 33.64788 | -84.41700 | 1012 ft | 23 kts | 269° |
| 2026-05-01 13:51 | 33.64788 | -84.41895 | 1012 ft | 24 kts | 273° |
| 2026-05-01 13:52 | 33.64789 | -84.42095 | 1013 ft | 20 kts | 269° |
| 2026-05-01 13:52 | 33.64789 | -84.42271 | 1015 ft | 21 kts | 269° |
| 2026-05-01 13:52 | 33.64788 | -84.42448 | 1016 ft | 21 kts | 270° |
| 2026-05-01 13:52 | 33.64788 | -84.42631 | 1017 ft | 21 kts | 270° |
| 2026-05-01 13:53 | 33.64790 | -84.42793 | 1019 ft | 16 kts | 270° |
| 2026-05-01 13:53 | 33.64629 | -84.42844 | 1020 ft | 13 kts | 155° |
| 2026-05-01 13:53 | 33.64557 | -84.42801 | 1025 ft | 12 kts | 153° |
| 2026-05-01 13:54 | 33.64464 | -84.42785 | 1025 ft | 14 kts | 205° |
| 2026-05-01 13:54 | 33.64372 | -84.42806 | 1025 ft | 13 kts | 180° |
| 2026-05-01 13:54 | 33.64265 | -84.42806 | 1025 ft | 15 kts | 180° |
| 2026-05-01 13:54 | 33.64167 | -84.42806 | 1025 ft | 12 kts | 181° |
| 2026-05-01 13:55 | 33.64117 | -84.42855 | 1025 ft | 8 kts | 272° |
| 2026-05-01 13:55 | 33.64120 | -84.42885 | 1025 ft | 0 kts | 279° |